sensor_id;sensor_type;location;lat;lon;timestamp;pressure;altitude;pressure_sealevel;temperature;humidity
3812;BME280;1921;49.368;11.068;2022-12-18T00:01:34;98956.03;;;-10.38;81.76
3812;BME280;1921;49.368;11.068;2022-12-18T00:04:03;98902.66;;;-10.78;81.65
3812;BME280;1921;49.368;11.068;2022-12-18T00:06:29;98966.06;;;-10.33;82.45
3812;BME280;1921;49.368;11.068;2022-12-18T00:08:57;98941.00;;;-10.45;81.63
3812;BME280;1921;49.368;11.068;2022-12-18T00:11:27;98960.28;;;-10.44;81.83
3812;BME280;1921;49.368;11.068;2022-12-18T00:13:55;98923.53;;;-10.65;81.86
3812;BME280;1921;49.368;11.068;2022-12-18T00:16:23;98968.06;;;-10.69;80.63
3812;BME280;1921;49.368;11.068;2022-12-18T00:18:53;98962.59;;;-11.24;81.34
3812;BME280;1921;49.368;11.068;2022-12-18T00:21:21;98951.88;;;-11.52;82.33
3812;BME280;1921;49.368;11.068;2022-12-18T00:23:48;98922.53;;;-11.53;82.69
3812;BME280;1921;49.368;11.068;2022-12-18T00:26:21;98953.44;;;-11.30;83.25
3812;BME280;1921;49.368;11.068;2022-12-18T00:28:47;98913.28;;;-11.47;82.90
3812;BME280;1921;49.368;11.068;2022-12-18T00:31:17;98950.69;;;-10.99;83.49
3812;BME280;1921;49.368;11.068;2022-12-18T00:33:44;99000.72;;;-10.53;83.89
3812;BME280;1921;49.368;11.068;2022-12-18T00:36:14;98939.69;;;-10.88;82.63
3812;BME280;1921;49.368;11.068;2022-12-18T00:38:40;98967.34;;;-10.83;84.33
3812;BME280;1921;49.368;11.068;2022-12-18T00:41:08;98933.75;;;-10.82;84.60
3812;BME280;1921;49.368;11.068;2022-12-18T00:43:34;98973.94;;;-10.68;83.23
3812;BME280;1921;49.368;11.068;2022-12-18T00:46:00;98968.91;;;-10.67;83.10
3812;BME280;1921;49.368;11.068;2022-12-18T00:48:26;98949.63;;;-10.71;83.67
3812;BME280;1921;49.368;11.068;2022-12-18T00:50:52;98883.50;;;-10.93;82.90
3812;BME280;1921;49.368;11.068;2022-12-18T00:53:18;98954.13;;;-11.13;81.92
3812;BME280;1921;49.368;11.068;2022-12-18T00:55:44;98955.56;;;-10.78;83.03
3812;BME280;1921;49.368;11.068;2022-12-18T00:58:12;98950.41;;;-10.64;84.32
3812;BME280;1921;49.368;11.068;2022-12-18T01:00:38;98988.59;;;-10.19;84.35
3812;BME280;1921;49.368;11.068;2022-12-18T01:03:04;98977.34;;;-9.89;84.73
3812;BME280;1921;49.368;11.068;2022-12-18T01:05:31;98947.97;;;-9.92;84.63
3812;BME280;1921;49.368;11.068;2022-12-18T01:07:57;98942.03;;;-9.89;85.15
3812;BME280;1921;49.368;11.068;2022-12-18T01:10:23;99001.13;;;-9.36;85.59
3812;BME280;1921;49.368;11.068;2022-12-18T01:12:49;98937.44;;;-9.58;86.00
3812;BME280;1921;49.368;11.068;2022-12-18T01:15:16;98951.38;;;-9.33;86.34
3812;BME280;1921;49.368;11.068;2022-12-18T01:17:42;98966.38;;;-9.20;85.33
3812;BME280;1921;49.368;11.068;2022-12-18T01:20:10;98991.16;;;-8.87;85.76
3812;BME280;1921;49.368;11.068;2022-12-18T01:22:36;99007.00;;;-8.77;85.97
3812;BME280;1921;49.368;11.068;2022-12-18T01:25:04;99008.03;;;-8.87;84.73
3812;BME280;1921;49.368;11.068;2022-12-18T01:27:32;98974.03;;;-9.93;82.64
3812;BME280;1921;49.368;11.068;2022-12-18T01:29:58;98989.84;;;-10.60;86.58
3812;BME280;1921;49.368;11.068;2022-12-18T01:32:24;98853.91;;;-11.75;87.47
3812;BME280;1921;49.368;11.068;2022-12-18T01:34:50;98978.78;;;-10.44;87.87
3812;BME280;1921;49.368;11.068;2022-12-18T01:37:15;98891.56;;;-10.59;87.74
3812;BME280;1921;49.368;11.068;2022-12-18T01:39:44;98974.03;;;-9.93;87.22
3812;BME280;1921;49.368;11.068;2022-12-18T01:42:15;98981.34;;;-9.71;86.93
3812;BME280;1921;49.368;11.068;2022-12-18T01:45:21;99052.25;;;-9.19;86.39
3812;BME280;1921;49.368;11.068;2022-12-18T01:48:03;98978.72;;;-9.61;85.28
3812;BME280;1921;49.368;11.068;2022-12-18T01:50:41;98982.44;;;-9.26;85.91
3812;BME280;1921;49.368;11.068;2022-12-18T01:53:17;98984.63;;;-9.02;86.75
3812;BME280;1921;49.368;11.068;2022-12-18T01:55:50;98990.97;;;-8.76;86.62
3812;BME280;1921;49.368;11.068;2022-12-18T01:58:18;99036.75;;;-8.37;87.48
3812;BME280;1921;49.368;11.068;2022-12-18T02:00:44;99001.44;;;-8.44;87.20
3812;BME280;1921;49.368;11.068;2022-12-18T02:03:10;99036.84;;;-8.44;85.09
3812;BME280;1921;49.368;11.068;2022-12-18T02:09:20;98936.53;;;-8.94;86.78
3812;BME280;1921;49.368;11.068;2022-12-18T02:12:11;99042.81;;;-8.01;86.87
3812;BME280;1921;49.368;11.068;2022-12-18T02:17:31;98967.97;;;-8.15;87.05
3812;BME280;1921;49.368;11.068;2022-12-18T02:29:13;99041.47;;;-6.91;88.48
3812;BME280;1921;49.368;11.068;2022-12-18T02:31:45;99001.75;;;-6.90;89.21
3812;BME280;1921;49.368;11.068;2022-12-18T02:34:13;99021.41;;;-6.63;89.22
3812;BME280;1921;49.368;11.068;2022-12-18T02:36:41;98994.81;;;-6.82;87.60
3812;BME280;1921;49.368;11.068;2022-12-18T02:39:10;98871.50;;;-7.57;85.85
3812;BME280;1921;49.368;11.068;2022-12-18T02:41:38;98989.03;;;-7.26;83.44
3812;BME280;1921;49.368;11.068;2022-12-18T02:44:10;98968.78;;;-7.68;84.65
3812;BME280;1921;49.368;11.068;2022-12-18T02:46:44;98934.78;;;-7.98;86.15
3812;BME280;1921;49.368;11.068;2022-12-18T02:52:22;99021.47;;;-7.03;86.43
3812;BME280;1921;49.368;11.068;2022-12-18T02:58:14;99003.13;;;-6.75;87.51
3812;BME280;1921;49.368;11.068;2022-12-18T03:03:58;99072.09;;;-7.42;87.59
3812;BME280;1921;49.368;11.068;2022-12-18T03:06:34;99036.53;;;-7.80;90.20
3812;BME280;1921;49.368;11.068;2022-12-18T03:09:15;99047.25;;;-7.66;90.48
3812;BME280;1921;49.368;11.068;2022-12-18T03:11:52;98961.72;;;-7.95;90.67
3812;BME280;1921;49.368;11.068;2022-12-18T03:14:39;98994.94;;;-7.67;90.55
3812;BME280;1921;49.368;11.068;2022-12-18T03:17:10;98980.28;;;-7.53;90.56
3812;BME280;1921;49.368;11.068;2022-12-18T03:19:38;98980.56;;;-7.25;90.24
3812;BME280;1921;49.368;11.068;2022-12-18T03:22:05;99047.00;;;-6.73;89.99
3812;BME280;1921;49.368;11.068;2022-12-18T03:24:33;99021.97;;;-6.50;89.42
3812;BME280;1921;49.368;11.068;2022-12-18T03:27:13;99035.72;;;-6.60;88.06
3812;BME280;1921;49.368;11.068;2022-12-18T03:30:02;99058.06;;;-6.40;88.10
3812;BME280;1921;49.368;11.068;2022-12-18T03:32:50;99063.53;;;-6.56;87.15
3812;BME280;1921;49.368;11.068;2022-12-18T03:35:24;98942.13;;;-7.44;88.65
3812;BME280;1921;49.368;11.068;2022-12-18T03:37:52;99010.53;;;-7.05;87.99
3812;BME280;1921;49.368;11.068;2022-12-18T03:40:24;99002.75;;;-6.97;88.11
3812;BME280;1921;49.368;11.068;2022-12-18T03:43:03;99042.72;;;-6.71;88.06
3812;BME280;1921;49.368;11.068;2022-12-18T03:45:38;99010.59;;;-6.71;88.71
3812;BME280;1921;49.368;11.068;2022-12-18T03:48:27;99011.59;;;-6.76;86.90
3812;BME280;1921;49.368;11.068;2022-12-18T03:51:21;99041.06;;;-6.72;87.60
3812;BME280;1921;49.368;11.068;2022-12-18T03:54:02;99070.47;;;-6.27;88.67
3812;BME280;1921;49.368;11.068;2022-12-18T03:56:35;98970.94;;;-6.73;86.98
3812;BME280;1921;49.368;11.068;2022-12-18T03:59:03;99020.84;;;-6.38;88.46
3812;BME280;1921;49.368;11.068;2022-12-18T04:01:42;98979.31;;;-6.36;87.10
3812;BME280;1921;49.368;11.068;2022-12-18T04:04:10;99012.19;;;-6.31;86.96
3812;BME280;1921;49.368;11.068;2022-12-18T04:06:38;99031.72;;;-6.01;87.28
3812;BME280;1921;49.368;11.068;2022-12-18T04:09:05;98964.53;;;-6.20;87.55
3812;BME280;1921;49.368;11.068;2022-12-18T04:11:32;99012.97;;;-5.95;86.24
3812;BME280;1921;49.368;11.068;2022-12-18T04:13:58;99065.78;;;-6.08;87.08
3812;BME280;1921;49.368;11.068;2022-12-18T04:16:27;99014.59;;;-6.98;88.68
3812;BME280;1921;49.368;11.068;2022-12-18T04:18:54;99062.09;;;-7.06;91.55
3812;BME280;1921;49.368;11.068;2022-12-18T04:21:20;99014.16;;;-7.17;92.44
3812;BME280;1921;49.368;11.068;2022-12-18T04:23:46;98992.66;;;-6.99;91.12
3812;BME280;1921;49.368;11.068;2022-12-18T04:26:12;99041.19;;;-6.41;90.74
3812;BME280;1921;49.368;11.068;2022-12-18T04:28:38;99004.91;;;-6.45;89.86
3812;BME280;1921;49.368;11.068;2022-12-18T04:31:03;99013.94;;;-6.33;89.47
3812;BME280;1921;49.368;11.068;2022-12-18T04:33:30;98991.94;;;-6.33;89.65
3812;BME280;1921;49.368;11.068;2022-12-18T04:35:56;99065.94;;;-5.83;89.07
3812;BME280;1921;49.368;11.068;2022-12-18T04:38:22;99032.81;;;-6.11;89.51
3812;BME280;1921;49.368;11.068;2022-12-18T04:40:47;98978.06;;;-6.19;89.22
3812;BME280;1921;49.368;11.068;2022-12-18T04:43:13;99028.47;;;-5.75;90.26
3812;BME280;1921;49.368;11.068;2022-12-18T04:45:39;99072.84;;;-5.24;90.50
3812;BME280;1921;49.368;11.068;2022-12-18T04:48:05;99054.97;;;-5.23;90.99
3812;BME280;1921;49.368;11.068;2022-12-18T04:50:31;99059.47;;;-5.01;91.10
3812;BME280;1921;49.368;11.068;2022-12-18T04:52:57;99014.22;;;-5.20;89.99
3812;BME280;1921;49.368;11.068;2022-12-18T04:55:22;99105.66;;;-4.57;89.72
3812;BME280;1921;49.368;11.068;2022-12-18T04:57:48;99039.34;;;-4.81;89.97
3812;BME280;1921;49.368;11.068;2022-12-18T05:00:14;98884.38;;;-5.70;89.83
3812;BME280;1921;49.368;11.068;2022-12-18T05:02:40;99021.31;;;-4.73;90.12
3812;BME280;1921;49.368;11.068;2022-12-18T05:05:07;99042.75;;;-4.54;89.92
3812;BME280;1921;49.368;11.068;2022-12-18T05:07:33;99043.19;;;-4.40;89.99
3812;BME280;1921;49.368;11.068;2022-12-18T05:09:58;99071.44;;;-4.22;89.52
3812;BME280;1921;49.368;11.068;2022-12-18T05:12:24;98996.09;;;-4.54;88.69
3812;BME280;1921;49.368;11.068;2022-12-18T05:14:50;98985.09;;;-4.55;88.65
3812;BME280;1921;49.368;11.068;2022-12-18T05:17:16;99054.13;;;-4.11;89.36
3812;BME280;1921;49.368;11.068;2022-12-18T05:19:42;99032.28;;;-4.18;89.95
3812;BME280;1921;49.368;11.068;2022-12-18T05:22:08;98960.59;;;-4.84;91.17
3812;BME280;1921;49.368;11.068;2022-12-18T05:24:34;99061.94;;;-4.16;90.97
3812;BME280;1921;49.368;11.068;2022-12-18T05:27:00;99025.63;;;-4.22;90.13
3812;BME280;1921;49.368;11.068;2022-12-18T05:29:29;99009.88;;;-4.34;90.70
3812;BME280;1921;49.368;11.068;2022-12-18T05:31:55;99046.47;;;-4.11;90.78
3812;BME280;1921;49.368;11.068;2022-12-18T05:34:21;99033.50;;;-4.30;91.50
3812;BME280;1921;49.368;11.068;2022-12-18T05:36:46;99068.22;;;-4.01;90.90
3812;BME280;1921;49.368;11.068;2022-12-18T05:39:12;99044.19;;;-4.19;91.22
3812;BME280;1921;49.368;11.068;2022-12-18T05:41:38;99025.06;;;-4.57;93.00
3812;BME280;1921;49.368;11.068;2022-12-18T05:44:04;99041.84;;;-4.51;93.10
3812;BME280;1921;49.368;11.068;2022-12-18T05:46:29;99011.19;;;-4.48;93.54
3812;BME280;1921;49.368;11.068;2022-12-18T05:48:58;99047.69;;;-4.21;93.26
3812;BME280;1921;49.368;11.068;2022-12-18T05:51:24;99068.69;;;-4.15;93.18
3812;BME280;1921;49.368;11.068;2022-12-18T05:53:50;98984.13;;;-4.77;94.42
3812;BME280;1921;49.368;11.068;2022-12-18T05:56:21;99039.50;;;-4.31;94.26
3812;BME280;1921;49.368;11.068;2022-12-18T05:58:52;99067.94;;;-4.18;93.21
3812;BME280;1921;49.368;11.068;2022-12-18T06:01:25;99049.41;;;-4.22;93.57
3812;BME280;1921;49.368;11.068;2022-12-18T06:03:51;99098.78;;;-4.01;94.23
3812;BME280;1921;49.368;11.068;2022-12-18T06:06:21;99110.00;;;-3.80;94.60
3812;BME280;1921;49.368;11.068;2022-12-18T06:08:48;99015.88;;;-4.36;93.67
3812;BME280;1921;49.368;11.068;2022-12-18T06:11:18;99039.03;;;-4.17;93.55
3812;BME280;1921;49.368;11.068;2022-12-18T06:13:45;99021.44;;;-4.50;93.84
3812;BME280;1921;49.368;11.068;2022-12-18T06:16:11;99013.34;;;-4.36;92.65
3812;BME280;1921;49.368;11.068;2022-12-18T06:18:36;99003.22;;;-4.38;92.90
3812;BME280;1921;49.368;11.068;2022-12-18T06:21:02;99078.84;;;-3.88;92.77
3812;BME280;1921;49.368;11.068;2022-12-18T06:23:28;99044.13;;;-3.91;91.71
3812;BME280;1921;49.368;11.068;2022-12-18T06:25:54;99007.25;;;-4.06;91.28
3812;BME280;1921;49.368;11.068;2022-12-18T06:28:20;99010.19;;;-4.18;92.11
3812;BME280;1921;49.368;11.068;2022-12-18T06:30:47;99073.22;;;-3.73;92.33
3812;BME280;1921;49.368;11.068;2022-12-18T06:33:15;99047.50;;;-3.90;92.08
3812;BME280;1921;49.368;11.068;2022-12-18T06:35:41;99079.88;;;-3.94;92.52
3812;BME280;1921;49.368;11.068;2022-12-18T06:38:10;99058.19;;;-4.06;92.59
3812;BME280;1921;49.368;11.068;2022-12-18T06:40:38;99048.53;;;-4.22;93.11
3812;BME280;1921;49.368;11.068;2022-12-18T06:43:05;99010.53;;;-4.81;94.23
3812;BME280;1921;49.368;11.068;2022-12-18T06:45:31;99082.91;;;-4.36;94.55
3812;BME280;1921;49.368;11.068;2022-12-18T06:47:57;99005.97;;;-4.70;94.58
3812;BME280;1921;49.368;11.068;2022-12-18T06:50:22;99042.97;;;-4.34;94.88
3812;BME280;1921;49.368;11.068;2022-12-18T06:52:48;99046.22;;;-4.28;94.96
3812;BME280;1921;49.368;11.068;2022-12-18T06:55:14;99075.38;;;-4.12;94.00
3812;BME280;1921;49.368;11.068;2022-12-18T06:57:39;99052.84;;;-4.24;94.41
3812;BME280;1921;49.368;11.068;2022-12-18T07:00:06;99037.34;;;-4.43;94.54
3812;BME280;1921;49.368;11.068;2022-12-18T07:02:32;99104.63;;;-3.97;94.39
3812;BME280;1921;49.368;11.068;2022-12-18T07:04:58;99097.28;;;-4.07;94.52
3812;BME280;1921;49.368;11.068;2022-12-18T07:07:24;99129.69;;;-3.85;94.85
3812;BME280;1921;49.368;11.068;2022-12-18T07:09:50;99135.28;;;-3.74;94.52
3812;BME280;1921;49.368;11.068;2022-12-18T07:12:16;99116.53;;;-3.73;94.30
3812;BME280;1921;49.368;11.068;2022-12-18T07:14:42;99086.44;;;-3.87;93.79
3812;BME280;1921;49.368;11.068;2022-12-18T07:17:08;99060.66;;;-4.02;93.63
3812;BME280;1921;49.368;11.068;2022-12-18T07:19:34;99043.59;;;-4.00;93.42
3812;BME280;1921;49.368;11.068;2022-12-18T07:22:00;99072.44;;;-3.75;93.31
3812;BME280;1921;49.368;11.068;2022-12-18T07:24:26;99075.75;;;-3.73;93.49
3812;BME280;1921;49.368;11.068;2022-12-18T07:26:53;99098.69;;;-3.46;93.45
3812;BME280;1921;49.368;11.068;2022-12-18T07:29:18;99070.88;;;-3.54;93.57
3812;BME280;1921;49.368;11.068;2022-12-18T07:31:45;99128.16;;;-3.14;92.73
3812;BME280;1921;49.368;11.068;2022-12-18T07:34:12;99110.94;;;-3.33;91.70
3812;BME280;1921;49.368;11.068;2022-12-18T07:36:39;99053.69;;;-3.72;92.18
3812;BME280;1921;49.368;11.068;2022-12-18T07:39:04;99125.28;;;-3.30;91.95
3812;BME280;1921;49.368;11.068;2022-12-18T07:41:30;99129.94;;;-3.16;91.37
3812;BME280;1921;49.368;11.068;2022-12-18T07:43:56;99124.84;;;-3.18;90.48
3812;BME280;1921;49.368;11.068;2022-12-18T07:46:22;99133.19;;;-3.13;90.64
3812;BME280;1921;49.368;11.068;2022-12-18T07:48:48;99128.44;;;-3.22;88.92
3812;BME280;1921;49.368;11.068;2022-12-18T07:51:14;99086.13;;;-3.53;90.22
3812;BME280;1921;49.368;11.068;2022-12-18T07:53:40;99171.66;;;-3.19;90.51
3812;BME280;1921;49.368;11.068;2022-12-18T07:56:09;99176.47;;;-3.10;91.19
3812;BME280;1921;49.368;11.068;2022-12-18T07:58:36;98964.06;;;-4.87;93.21
3812;BME280;1921;49.368;11.068;2022-12-18T08:01:07;99110.78;;;-3.78;91.99
3812;BME280;1921;49.368;11.068;2022-12-18T08:03:33;99080.63;;;-3.90;91.73
3812;BME280;1921;49.368;11.068;2022-12-18T08:06:05;99144.91;;;-3.32;90.61
3812;BME280;1921;49.368;11.068;2022-12-18T08:08:32;99116.34;;;-3.67;91.56
3812;BME280;1921;49.368;11.068;2022-12-18T08:10:59;99125.69;;;-3.41;90.49
3812;BME280;1921;49.368;11.068;2022-12-18T08:13:25;98981.34;;;-4.18;89.45
3812;BME280;1921;49.368;11.068;2022-12-18T08:16:06;99103.13;;;-3.28;89.76
3812;BME280;1921;49.368;11.068;2022-12-18T08:18:34;99125.38;;;-3.08;89.20
3812;BME280;1921;49.368;11.068;2022-12-18T08:23:35;99156.50;;;-2.75;87.37
3812;BME280;1921;49.368;11.068;2022-12-18T08:26:01;99094.00;;;-3.10;88.73
3812;BME280;1921;49.368;11.068;2022-12-18T08:28:26;99112.66;;;-2.86;88.51
3812;BME280;1921;49.368;11.068;2022-12-18T08:30:52;99147.41;;;-2.59;87.70
3812;BME280;1921;49.368;11.068;2022-12-18T08:33:18;99135.63;;;-2.63;86.58
3812;BME280;1921;49.368;11.068;2022-12-18T08:35:44;99151.22;;;-2.47;86.40
3812;BME280;1921;49.368;11.068;2022-12-18T08:38:12;99171.06;;;-2.54;87.83
3812;BME280;1921;49.368;11.068;2022-12-18T08:40:37;99184.63;;;-2.30;87.98
3812;BME280;1921;49.368;11.068;2022-12-18T08:43:03;99116.84;;;-2.62;87.71
3812;BME280;1921;49.368;11.068;2022-12-18T08:45:47;99066.22;;;-2.73;86.03
3812;BME280;1921;49.368;11.068;2022-12-18T08:48:13;99122.41;;;-2.51;86.07
3812;BME280;1921;49.368;11.068;2022-12-18T08:50:38;99151.69;;;-2.37;86.06
3812;BME280;1921;49.368;11.068;2022-12-18T08:53:05;99122.75;;;-2.38;85.86
3812;BME280;1921;49.368;11.068;2022-12-18T08:55:31;99144.03;;;-2.37;85.25
3812;BME280;1921;49.368;11.068;2022-12-18T08:57:57;99129.53;;;-2.37;83.28
3812;BME280;1921;49.368;11.068;2022-12-18T09:00:22;99097.09;;;-3.02;87.89
3812;BME280;1921;49.368;11.068;2022-12-18T09:02:48;99046.38;;;-3.11;87.18
3812;BME280;1921;49.368;11.068;2022-12-18T09:05:14;98992.63;;;-3.29;84.68
3812;BME280;1921;49.368;11.068;2022-12-18T09:07:40;99091.25;;;-2.82;85.99
3812;BME280;1921;49.368;11.068;2022-12-18T09:10:06;99099.22;;;-2.68;86.07
3812;BME280;1921;49.368;11.068;2022-12-18T09:12:32;99090.72;;;-2.68;84.90
3812;BME280;1921;49.368;11.068;2022-12-18T09:14:58;99085.09;;;-2.55;85.41
3812;BME280;1921;49.368;11.068;2022-12-18T09:17:23;99122.81;;;-2.39;85.12
3812;BME280;1921;49.368;11.068;2022-12-18T09:19:49;99088.19;;;-2.68;84.99
3812;BME280;1921;49.368;11.068;2022-12-18T09:22:15;99118.19;;;-2.52;85.26
3812;BME280;1921;49.368;11.068;2022-12-18T09:24:40;99125.47;;;-2.64;84.39
3812;BME280;1921;49.368;11.068;2022-12-18T09:27:06;99065.28;;;-3.17;85.57
3812;BME280;1921;49.368;11.068;2022-12-18T09:29:32;99124.88;;;-2.71;86.54
3812;BME280;1921;49.368;11.068;2022-12-18T09:31:58;99069.41;;;-3.13;85.91
3812;BME280;1921;49.368;11.068;2022-12-18T09:34:24;99097.09;;;-3.02;87.13
3812;BME280;1921;49.368;11.068;2022-12-18T09:36:50;99083.06;;;-3.14;87.39
3812;BME280;1921;49.368;11.068;2022-12-18T09:39:16;99107.22;;;-3.24;88.19
3812;BME280;1921;49.368;11.068;2022-12-18T09:41:54;99080.44;;;-3.12;88.32
3812;BME280;1921;49.368;11.068;2022-12-18T09:44:42;99102.06;;;-2.76;88.18
3812;BME280;1921;49.368;11.068;2022-12-18T09:47:35;98992.13;;;-3.15;87.00
3812;BME280;1921;49.368;11.068;2022-12-18T09:50:21;99139.19;;;-2.67;86.66
3812;BME280;1921;49.368;11.068;2022-12-18T09:52:53;99075.94;;;-2.82;85.99
3812;BME280;1921;49.368;11.068;2022-12-18T09:55:42;99088.59;;;-2.57;85.51
3812;BME280;1921;49.368;11.068;2022-12-18T10:00:35;99146.25;;;-2.28;84.15
3812;BME280;1921;49.368;11.068;2022-12-18T10:03:11;99146.41;;;-2.33;83.21
3812;BME280;1921;49.368;11.068;2022-12-18T10:08:43;99153.47;;;-2.39;85.92
3812;BME280;1921;49.368;11.068;2022-12-18T10:11:45;99154.38;;;-2.19;86.69
3812;BME280;1921;49.368;11.068;2022-12-18T10:14:27;99147.72;;;-2.01;86.39
3812;BME280;1921;49.368;11.068;2022-12-18T10:17:52;99146.41;;;-2.33;83.94
3812;BME280;1921;49.368;11.068;2022-12-18T10:20:54;99136.91;;;-2.29;83.13
3812;BME280;1921;49.368;11.068;2022-12-18T10:23:46;99067.78;;;-2.47;81.87
3812;BME280;1921;49.368;11.068;2022-12-18T10:26:15;99066.84;;;-2.67;83.28
3812;BME280;1921;49.368;11.068;2022-12-18T10:28:41;99090.72;;;-2.25;82.05
3812;BME280;1921;49.368;11.068;2022-12-18T10:31:24;99057.97;;;-2.57;82.68
3812;BME280;1921;49.368;11.068;2022-12-18T10:33:50;99080.06;;;-2.34;81.28
3812;BME280;1921;49.368;11.068;2022-12-18T10:36:16;99070.09;;;-1.78;79.11
3812;BME280;1921;49.368;11.068;2022-12-18T10:38:42;99113.31;;;-1.12;77.43
3812;BME280;1921;49.368;11.068;2022-12-18T10:43:44;99097.50;;;-0.64;75.98
3812;BME280;1921;49.368;11.068;2022-12-18T10:46:15;99052.59;;;-0.35;71.21
3812;BME280;1921;49.368;11.068;2022-12-18T10:48:52;99087.09;;;-0.42;71.05
3812;BME280;1921;49.368;11.068;2022-12-18T10:51:24;99135.38;;;0.38;70.31
3812;BME280;1921;49.368;11.068;2022-12-18T10:54:05;99130.59;;;0.48;67.39
3812;BME280;1921;49.368;11.068;2022-12-18T10:56:35;99027.38;;;-0.44;68.94
3812;BME280;1921;49.368;11.068;2022-12-18T10:59:09;99079.63;;;-0.46;69.65
3812;BME280;1921;49.368;11.068;2022-12-18T11:01:58;99121.31;;;-0.80;71.20
3812;BME280;1921;49.368;11.068;2022-12-18T11:04:31;99077.34;;;-1.09;73.25
3812;BME280;1921;49.368;11.068;2022-12-18T11:07:07;99148.03;;;-0.86;74.05
3812;BME280;1921;49.368;11.068;2022-12-18T11:09:36;99148.84;;;-1.04;74.40
3812;BME280;1921;49.368;11.068;2022-12-18T11:12:15;99137.16;;;-0.91;74.78
3812;BME280;1921;49.368;11.068;2022-12-18T11:14:48;99087.13;;;-0.79;75.59
3812;BME280;1921;49.368;11.068;2022-12-18T11:17:31;99065.28;;;0.03;71.07
3812;BME280;1921;49.368;11.068;2022-12-18T11:20:34;99066.22;;;0.52;66.52
3812;BME280;1921;49.368;11.068;2022-12-18T11:23:05;98998.59;;;0.53;64.17
3812;BME280;1921;49.368;11.068;2022-12-18T11:25:39;99022.59;;;1.01;63.76
3812;BME280;1921;49.368;11.068;2022-12-18T11:28:42;99045.19;;;1.42;61.14
3812;BME280;1921;49.368;11.068;2022-12-18T11:31:26;99064.09;;;2.17;62.17
3812;BME280;1921;49.368;11.068;2022-12-18T11:34:28;99119.63;;;2.21;58.23
3812;BME280;1921;49.368;11.068;2022-12-18T11:36:58;99041.69;;;2.19;57.40
3812;BME280;1921;49.368;11.068;2022-12-18T11:39:35;99049.19;;;2.38;57.05
3812;BME280;1921;49.368;11.068;2022-12-18T11:42:30;99071.16;;;2.58;57.79
3812;BME280;1921;49.368;11.068;2022-12-18T11:48:03;99088.56;;;1.64;58.68
3812;BME280;1921;49.368;11.068;2022-12-18T11:53:03;99037.22;;;0.99;61.17
3812;BME280;1921;49.368;11.068;2022-12-18T11:59:23;99086.69;;;0.37;64.45
3812;BME280;1921;49.368;11.068;2022-12-18T12:02:11;98991.16;;;-0.36;65.00
3812;BME280;1921;49.368;11.068;2022-12-18T12:05:04;99070.66;;;-0.38;67.71
3812;BME280;1921;49.368;11.068;2022-12-18T12:08:01;98999.03;;;-0.58;68.16
3812;BME280;1921;49.368;11.068;2022-12-18T12:10:46;99064.13;;;-0.26;67.46
3812;BME280;1921;49.368;11.068;2022-12-18T12:13:35;99080.28;;;-0.79;71.05
3812;BME280;1921;49.368;11.068;2022-12-18T12:19:02;99077.22;;;-0.49;70.02
3812;BME280;1921;49.368;11.068;2022-12-18T12:21:39;99079.91;;;-0.52;70.17
3812;BME280;1921;49.368;11.068;2022-12-18T12:24:23;99060.91;;;-0.85;70.71
3812;BME280;1921;49.368;11.068;2022-12-18T12:27:21;99061.56;;;-0.81;71.62
3812;BME280;1921;49.368;11.068;2022-12-18T12:31:03;99063.53;;;-0.50;70.27
3812;BME280;1921;49.368;11.068;2022-12-18T12:33:50;98999.28;;;-1.18;72.07
3812;BME280;1921;49.368;11.068;2022-12-18T12:36:22;99066.38;;;-0.56;72.63
3812;BME280;1921;49.368;11.068;2022-12-18T12:38:57;99055.13;;;-0.71;71.53
3812;BME280;1921;49.368;11.068;2022-12-18T12:41:30;99019.78;;;-0.82;71.52
3812;BME280;1921;49.368;11.068;2022-12-18T12:44:31;99033.69;;;-0.68;70.21
3812;BME280;1921;49.368;11.068;2022-12-18T12:47:13;99055.97;;;-0.70;71.48
3812;BME280;1921;49.368;11.068;2022-12-18T12:49:40;99063.31;;;-1.00;72.89
3812;BME280;1921;49.368;11.068;2022-12-18T12:52:22;99065.47;;;-1.10;72.32
3812;BME280;1921;49.368;11.068;2022-12-18T12:54:52;98980.84;;;-1.45;72.45
3812;BME280;1921;49.368;11.068;2022-12-18T13:00:18;99051.69;;;-0.89;71.99
3812;BME280;1921;49.368;11.068;2022-12-18T13:05:50;99009.50;;;-0.99;72.93
3812;BME280;1921;49.368;11.068;2022-12-18T13:08:31;98951.34;;;-1.33;72.30
3812;BME280;1921;49.368;11.068;2022-12-18T13:10:58;98969.16;;;-1.31;73.06
3812;BME280;1921;49.368;11.068;2022-12-18T13:13:54;98999.53;;;-1.05;73.37
3812;BME280;1921;49.368;11.068;2022-12-18T13:16:23;99050.78;;;-0.88;73.91
3812;BME280;1921;49.368;11.068;2022-12-18T13:18:55;98982.13;;;-1.34;73.92
3812;BME280;1921;49.368;11.068;2022-12-18T13:21:34;98979.06;;;-1.24;73.55
3812;BME280;1921;49.368;11.068;2022-12-18T13:24:24;99035.78;;;-0.95;73.04
3812;BME280;1921;49.368;11.068;2022-12-18T13:26:50;98998.13;;;-1.31;73.93
3812;BME280;1921;49.368;11.068;2022-12-18T13:29:41;99046.28;;;-0.83;73.63
3812;BME280;1921;49.368;11.068;2022-12-18T13:32:24;99037.59;;;-0.97;74.19
3812;BME280;1921;49.368;11.068;2022-12-18T13:37:53;98928.78;;;-1.81;75.56
3812;BME280;1921;49.368;11.068;2022-12-18T13:48:27;98988.72;;;-1.88;77.73
3812;BME280;1921;49.368;11.068;2022-12-18T13:51:08;98992.19;;;-1.90;78.32
3812;BME280;1921;49.368;11.068;2022-12-18T13:53:48;98963.69;;;-2.01;78.60
3812;BME280;1921;49.368;11.068;2022-12-18T13:56:24;98976.66;;;-2.05;78.30
3812;BME280;1921;49.368;11.068;2022-12-18T13:59:19;99040.34;;;-1.80;80.97
3812;BME280;1921;49.368;11.068;2022-12-18T14:06:57;98969.16;;;-1.69;79.09
3812;BME280;1921;49.368;11.068;2022-12-18T14:09:28;98963.63;;;-1.60;78.33
3812;BME280;1921;49.368;11.068;2022-12-18T14:11:55;98981.28;;;-1.54;78.11
3812;BME280;1921;49.368;11.068;2022-12-18T14:14:46;99018.59;;;-1.50;78.45
3812;BME280;1921;49.368;11.068;2022-12-18T14:17:14;98952.25;;;-1.92;79.45
3812;BME280;1921;49.368;11.068;2022-12-18T14:19:45;98963.50;;;-1.96;80.10
3812;BME280;1921;49.368;11.068;2022-12-18T14:22:25;98957.63;;;-1.98;80.15
3812;BME280;1921;49.368;11.068;2022-12-18T14:25:19;98962.63;;;-2.15;80.86
3812;BME280;1921;49.368;11.068;2022-12-18T14:27:51;98928.81;;;-2.42;82.34
3812;BME280;1921;49.368;11.068;2022-12-18T14:36:05;98936.16;;;-2.76;84.68
3812;BME280;1921;49.368;11.068;2022-12-18T14:38:43;99008.75;;;-2.61;85.08
3812;BME280;1921;49.368;11.068;2022-12-18T14:41:15;98997.81;;;-2.64;86.58
3812;BME280;1921;49.368;11.068;2022-12-18T14:43:48;98982.19;;;-2.57;85.59
3812;BME280;1921;49.368;11.068;2022-12-18T14:49:00;99037.22;;;-2.50;85.17
3812;BME280;1921;49.368;11.068;2022-12-18T14:51:32;99047.50;;;-2.29;85.02
3812;BME280;1921;49.368;11.068;2022-12-18T14:54:05;98987.03;;;-2.71;84.56